Eaton Rapids, Michigan
Current Conditions -  °F | °C
As of 9:35 AM on Friday 31 Oct 2014 (Local Time) from KFPK Reporting Station
Drizzle Drizzle  
Wind Chill: 38°   Ceiling: 1200
Heat Index: 41°   Visibility: 7mi
Dew Point: 38°   Wind: 5mph
Humidity: 91%   Direction: 280°W
Pressure: 29.9"   Gusts: NA
Location:  42.51°N, 84.66°W
Report Text: KFPK 311335Z AUTO 28004KT 7SM DZ SCT008 BKN012 OVC032 05/04 A2990 RMK AO2 T00500036
Loading
Personal Weather Stations






























Interactive Weather Map
Tropical Storm Tracking
New forecast layout! Learn more

10-Day Weather Forecast

Advertisements
Track Severe Weather on mobile